sensor_id;sensor_type;location;lat;lon;timestamp;temperature;humidity
11505;DHT22;5809;53.262;10.408;2022-08-18T00:00:10;19.00;99.90
11505;DHT22;5809;53.262;10.408;2022-08-18T00:02:40;19.10;99.90
11505;DHT22;5809;53.262;10.408;2022-08-18T00:05:09;19.10;99.90
11505;DHT22;5809;53.262;10.408;2022-08-18T00:07:37;19.10;99.90
11505;DHT22;5809;53.262;10.408;2022-08-18T00:10:05;19.10;99.90
11505;DHT22;5809;53.262;10.408;2022-08-18T00:12:35;19.00;99.90
11505;DHT22;5809;53.262;10.408;2022-08-18T00:15:04;19.00;99.90
11505;DHT22;5809;53.262;10.408;2022-08-18T00:17:33;19.00;99.90
11505;DHT22;5809;53.262;10.408;2022-08-18T00:20:01;19.00;99.90
11505;DHT22;5809;53.262;10.408;2022-08-18T00:24:56;19.00;99.90
11505;DHT22;5809;53.262;10.408;2022-08-18T00:27:26;19.00;99.90
11505;DHT22;5809;53.262;10.408;2022-08-18T00:29:53;19.00;99.90
11505;DHT22;5809;53.262;10.408;2022-08-18T00:32:24;19.00;99.90
11505;DHT22;5809;53.262;10.408;2022-08-18T00:34:53;18.90;99.90
11505;DHT22;5809;53.262;10.408;2022-08-18T00:37:21;18.90;99.90
11505;DHT22;5809;53.262;10.408;2022-08-18T00:39:49;18.90;99.90
11505;DHT22;5809;53.262;10.408;2022-08-18T00:42:20;19.00;99.90
11505;DHT22;5809;53.262;10.408;2022-08-18T00:47:15;18.90;99.90
11505;DHT22;5809;53.262;10.408;2022-08-18T00:49:44;18.90;99.90
11505;DHT22;5809;53.262;10.408;2022-08-18T00:52:14;18.90;99.90
11505;DHT22;5809;53.262;10.408;2022-08-18T00:54:43;18.90;99.90
11505;DHT22;5809;53.262;10.408;2022-08-18T00:57:12;18.80;99.90
11505;DHT22;5809;53.262;10.408;2022-08-18T00:59:44;18.80;99.90
11505;DHT22;5809;53.262;10.408;2022-08-18T01:02:20;18.70;99.90
11505;DHT22;5809;53.262;10.408;2022-08-18T01:04:52;18.80;99.90
11505;DHT22;5809;53.262;10.408;2022-08-18T01:07:25;18.70;99.90
11505;DHT22;5809;53.262;10.408;2022-08-18T01:09:55;18.70;99.90
11505;DHT22;5809;53.262;10.408;2022-08-18T01:12:24;18.80;99.90
11505;DHT22;5809;53.262;10.408;2022-08-18T01:14:51;18.80;99.90
11505;DHT22;5809;53.262;10.408;2022-08-18T01:17:19;18.80;99.90
11505;DHT22;5809;53.262;10.408;2022-08-18T01:20:04;18.70;99.90
11505;DHT22;5809;53.262;10.408;2022-08-18T01:22:56;18.70;99.90
11505;DHT22;5809;53.262;10.408;2022-08-18T01:25:25;18.70;99.90
11505;DHT22;5809;53.262;10.408;2022-08-18T01:28:10;18.70;99.90
11505;DHT22;5809;53.262;10.408;2022-08-18T01:30:45;18.70;99.90
11505;DHT22;5809;53.262;10.408;2022-08-18T01:33:14;18.70;99.90
11505;DHT22;5809;53.262;10.408;2022-08-18T01:35:42;18.70;99.90
11505;DHT22;5809;53.262;10.408;2022-08-18T01:38:14;18.70;99.90
11505;DHT22;5809;53.262;10.408;2022-08-18T01:43:11;18.60;99.90
11505;DHT22;5809;53.262;10.408;2022-08-18T01:45:38;18.70;99.90
11505;DHT22;5809;53.262;10.408;2022-08-18T01:48:05;18.60;99.90
11505;DHT22;5809;53.262;10.408;2022-08-18T01:50:33;18.50;99.90
11505;DHT22;5809;53.262;10.408;2022-08-18T01:53:01;18.50;99.90
11505;DHT22;5809;53.262;10.408;2022-08-18T01:55:32;18.50;99.90
11505;DHT22;5809;53.262;10.408;2022-08-18T01:57:59;18.40;99.90
11505;DHT22;5809;53.262;10.408;2022-08-18T02:00:27;18.40;99.90
11505;DHT22;5809;53.262;10.408;2022-08-18T02:02:54;18.40;99.90
11505;DHT22;5809;53.262;10.408;2022-08-18T02:05:29;18.40;99.90
11505;DHT22;5809;53.262;10.408;2022-08-18T02:07:57;18.30;99.90
11505;DHT22;5809;53.262;10.408;2022-08-18T02:10:24;18.40;99.90
11505;DHT22;5809;53.262;10.408;2022-08-18T02:12:53;18.50;99.90
11505;DHT22;5809;53.262;10.408;2022-08-18T02:20:17;18.50;99.90
11505;DHT22;5809;53.262;10.408;2022-08-18T02:22:45;18.50;99.90
11505;DHT22;5809;53.262;10.408;2022-08-18T02:25:14;18.50;99.90
11505;DHT22;5809;53.262;10.408;2022-08-18T02:27:41;18.30;99.90
11505;DHT22;5809;53.262;10.408;2022-08-18T02:30:12;18.40;99.90
11505;DHT22;5809;53.262;10.408;2022-08-18T02:35:08;18.30;99.90
11505;DHT22;5809;53.262;10.408;2022-08-18T02:37:37;18.20;99.90
11505;DHT22;5809;53.262;10.408;2022-08-18T02:40:05;18.20;99.90
11505;DHT22;5809;53.262;10.408;2022-08-18T02:42:32;18.20;99.90
11505;DHT22;5809;53.262;10.408;2022-08-18T02:47:27;18.20;99.90
11505;DHT22;5809;53.262;10.408;2022-08-18T02:49:54;18.20;99.90
11505;DHT22;5809;53.262;10.408;2022-08-18T02:54:50;18.10;99.90
11505;DHT22;5809;53.262;10.408;2022-08-18T02:59:48;18.10;99.90
11505;DHT22;5809;53.262;10.408;2022-08-18T03:02:14;18.00;99.90
11505;DHT22;5809;53.262;10.408;2022-08-18T03:04:43;18.00;99.90
11505;DHT22;5809;53.262;10.408;2022-08-18T03:07:10;18.00;99.90
11505;DHT22;5809;53.262;10.408;2022-08-18T03:09:37;17.80;99.90
11505;DHT22;5809;53.262;10.408;2022-08-18T03:14:33;17.80;99.90
11505;DHT22;5809;53.262;10.408;2022-08-18T03:17:03;17.90;99.90
11505;DHT22;5809;53.262;10.408;2022-08-18T03:19:31;17.80;99.90
11505;DHT22;5809;53.262;10.408;2022-08-18T03:21:59;17.80;99.90
11505;DHT22;5809;53.262;10.408;2022-08-18T03:24:27;17.80;99.90
11505;DHT22;5809;53.262;10.408;2022-08-18T03:26:55;17.70;99.90
11505;DHT22;5809;53.262;10.408;2022-08-18T03:29:22;17.70;99.90
11505;DHT22;5809;53.262;10.408;2022-08-18T03:34:19;17.80;99.90
11505;DHT22;5809;53.262;10.408;2022-08-18T03:39:17;17.90;99.90
11505;DHT22;5809;53.262;10.408;2022-08-18T03:41:45;17.90;99.90
11505;DHT22;5809;53.262;10.408;2022-08-18T03:49:07;17.70;99.90
11505;DHT22;5809;53.262;10.408;2022-08-18T03:51:35;17.70;99.90
11505;DHT22;5809;53.262;10.408;2022-08-18T03:54:03;17.60;99.90
11505;DHT22;5809;53.262;10.408;2022-08-18T03:56:34;17.60;99.90
11505;DHT22;5809;53.262;10.408;2022-08-18T03:59:05;17.60;99.90
11505;DHT22;5809;53.262;10.408;2022-08-18T04:01:36;17.60;99.90
11505;DHT22;5809;53.262;10.408;2022-08-18T04:04:05;17.60;99.90
11505;DHT22;5809;53.262;10.408;2022-08-18T04:06:35;17.60;99.90
11505;DHT22;5809;53.262;10.408;2022-08-18T04:09:05;17.60;99.90
11505;DHT22;5809;53.262;10.408;2022-08-18T04:11:36;17.60;99.90
11505;DHT22;5809;53.262;10.408;2022-08-18T04:16:35;17.70;99.90
11505;DHT22;5809;53.262;10.408;2022-08-18T04:19:03;17.70;99.90
11505;DHT22;5809;53.262;10.408;2022-08-18T04:23:58;17.80;99.90
11505;DHT22;5809;53.262;10.408;2022-08-18T04:28:56;17.80;99.90
11505;DHT22;5809;53.262;10.408;2022-08-18T04:41:16;17.80;99.90
11505;DHT22;5809;53.262;10.408;2022-08-18T04:43:43;17.90;99.90
11505;DHT22;5809;53.262;10.408;2022-08-18T04:46:12;17.90;99.90
11505;DHT22;5809;53.262;10.408;2022-08-18T04:48:40;18.10;99.90
11505;DHT22;5809;53.262;10.408;2022-08-18T04:51:10;18.10;99.90
11505;DHT22;5809;53.262;10.408;2022-08-18T04:53:38;18.10;99.90
11505;DHT22;5809;53.262;10.408;2022-08-18T04:56:15;18.20;99.90
11505;DHT22;5809;53.262;10.408;2022-08-18T05:01:15;18.30;99.90
11505;DHT22;5809;53.262;10.408;2022-08-18T05:03:42;18.50;99.90
11505;DHT22;5809;53.262;10.408;2022-08-18T05:06:09;18.60;99.90
11505;DHT22;5809;53.262;10.408;2022-08-18T05:08:36;18.90;99.90
11505;DHT22;5809;53.262;10.408;2022-08-18T05:11:04;19.10;99.90
11505;DHT22;5809;53.262;10.408;2022-08-18T05:13:31;19.30;99.90
11505;DHT22;5809;53.262;10.408;2022-08-18T05:15:59;19.60;99.90
11505;DHT22;5809;53.262;10.408;2022-08-18T05:18:30;19.80;99.90
11505;DHT22;5809;53.262;10.408;2022-08-18T05:20:57;19.80;99.90
11505;DHT22;5809;53.262;10.408;2022-08-18T05:23:25;19.90;99.90
11505;DHT22;5809;53.262;10.408;2022-08-18T05:25:56;20.00;99.90
11505;DHT22;5809;53.262;10.408;2022-08-18T05:28:24;19.90;99.90
11505;DHT22;5809;53.262;10.408;2022-08-18T05:30:51;20.10;99.90
11505;DHT22;5809;53.262;10.408;2022-08-18T05:33:18;20.10;99.90
11505;DHT22;5809;53.262;10.408;2022-08-18T05:35:49;20.20;99.90
11505;DHT22;5809;53.262;10.408;2022-08-18T05:38:27;20.40;99.90
11505;DHT22;5809;53.262;10.408;2022-08-18T05:41:06;20.90;99.90
11505;DHT22;5809;53.262;10.408;2022-08-18T05:43:36;21.20;99.90
11505;DHT22;5809;53.262;10.408;2022-08-18T05:46:04;21.40;99.90
11505;DHT22;5809;53.262;10.408;2022-08-18T05:48:31;21.40;99.90
11505;DHT22;5809;53.262;10.408;2022-08-18T05:51:09;21.80;99.90
11505;DHT22;5809;53.262;10.408;2022-08-18T05:53:37;21.90;99.90
11505;DHT22;5809;53.262;10.408;2022-08-18T05:56:25;22.00;99.90
11505;DHT22;5809;53.262;10.408;2022-08-18T05:59:15;22.00;99.90
11505;DHT22;5809;53.262;10.408;2022-08-18T06:01:47;22.10;99.90
11505;DHT22;5809;53.262;10.408;2022-08-18T06:04:23;22.00;99.90
11505;DHT22;5809;53.262;10.408;2022-08-18T06:06:56;22.40;99.90
11505;DHT22;5809;53.262;10.408;2022-08-18T06:09:30;22.30;99.90
11505;DHT22;5809;53.262;10.408;2022-08-18T06:12:05;22.30;99.90
11505;DHT22;5809;53.262;10.408;2022-08-18T06:14:36;22.60;99.90
11505;DHT22;5809;53.262;10.408;2022-08-18T06:17:09;22.70;99.90
11505;DHT22;5809;53.262;10.408;2022-08-18T06:19:47;27.30;99.90
11505;DHT22;5809;53.262;10.408;2022-08-18T06:22:25;23.10;99.90
11505;DHT22;5809;53.262;10.408;2022-08-18T06:25:00;23.40;99.90
11505;DHT22;5809;53.262;10.408;2022-08-18T06:27:36;23.60;99.90
11505;DHT22;5809;53.262;10.408;2022-08-18T06:30:11;23.80;99.90
11505;DHT22;5809;53.262;10.408;2022-08-18T06:33:08;23.90;99.90
11505;DHT22;5809;53.262;10.408;2022-08-18T06:35:40;24.00;99.90
11505;DHT22;5809;53.262;10.408;2022-08-18T06:38:34;23.90;99.90
11505;DHT22;5809;53.262;10.408;2022-08-18T06:41:13;23.90;99.90
11505;DHT22;5809;53.262;10.408;2022-08-18T06:43:49;24.10;99.90
11505;DHT22;5809;53.262;10.408;2022-08-18T06:46:22;24.10;99.90
11505;DHT22;5809;53.262;10.408;2022-08-18T06:48:57;23.90;99.90
11505;DHT22;5809;53.262;10.408;2022-08-18T06:51:27;22.90;99.90
11505;DHT22;5809;53.262;10.408;2022-08-18T06:53:59;22.70;99.90
11505;DHT22;5809;53.262;10.408;2022-08-18T06:56:34;22.10;99.90
11505;DHT22;5809;53.262;10.408;2022-08-18T06:59:24;21.40;99.90
11505;DHT22;5809;53.262;10.408;2022-08-18T07:01:55;21.10;99.90
11505;DHT22;5809;53.262;10.408;2022-08-18T07:07:18;20.80;99.90
11505;DHT22;5809;53.262;10.408;2022-08-18T07:09:47;20.70;99.90
11505;DHT22;5809;53.262;10.408;2022-08-18T07:12:21;20.60;99.90
11505;DHT22;5809;53.262;10.408;2022-08-18T07:14:51;20.40;99.90
11505;DHT22;5809;53.262;10.408;2022-08-18T07:17:22;20.50;99.90
11505;DHT22;5809;53.262;10.408;2022-08-18T07:20:03;20.50;99.90
11505;DHT22;5809;53.262;10.408;2022-08-18T07:22:31;20.30;99.90
11505;DHT22;5809;53.262;10.408;2022-08-18T07:25:02;20.30;99.90
11505;DHT22;5809;53.262;10.408;2022-08-18T07:27:42;20.20;99.90
11505;DHT22;5809;53.262;10.408;2022-08-18T07:30:12;20.10;99.90
11505;DHT22;5809;53.262;10.408;2022-08-18T07:32:43;20.10;99.90
11505;DHT22;5809;53.262;10.408;2022-08-18T07:35:16;20.10;99.90
11505;DHT22;5809;53.262;10.408;2022-08-18T07:37:47;20.20;99.90
11505;DHT22;5809;53.262;10.408;2022-08-18T07:40:26;20.40;99.90
11505;DHT22;5809;53.262;10.408;2022-08-18T07:42:58;20.50;99.90
11505;DHT22;5809;53.262;10.408;2022-08-18T07:45:30;20.40;99.90
11505;DHT22;5809;53.262;10.408;2022-08-18T07:48:03;20.20;99.90
11505;DHT22;5809;53.262;10.408;2022-08-18T07:50:35;20.00;99.90
11505;DHT22;5809;53.262;10.408;2022-08-18T07:53:11;19.90;99.90
11505;DHT22;5809;53.262;10.408;2022-08-18T07:55:44;19.60;99.90
11505;DHT22;5809;53.262;10.408;2022-08-18T07:58:24;19.60;99.90
11505;DHT22;5809;53.262;10.408;2022-08-18T08:00:57;19.70;99.90
11505;DHT22;5809;53.262;10.408;2022-08-18T08:03:42;17.60;99.90
11505;DHT22;5809;53.262;10.408;2022-08-18T08:06:18;19.80;99.90
11505;DHT22;5809;53.262;10.408;2022-08-18T08:08:52;19.80;99.90
11505;DHT22;5809;53.262;10.408;2022-08-18T08:11:38;19.90;99.90
11505;DHT22;5809;53.262;10.408;2022-08-18T08:14:19;19.90;99.90
11505;DHT22;5809;53.262;10.408;2022-08-18T08:16:55;20.10;99.90
11505;DHT22;5809;53.262;10.408;2022-08-18T08:19:42;20.20;99.90
11505;DHT22;5809;53.262;10.408;2022-08-18T08:22:15;20.30;99.90
11505;DHT22;5809;53.262;10.408;2022-08-18T08:24:51;20.30;99.90
11505;DHT22;5809;53.262;10.408;2022-08-18T08:27:30;20.20;99.90
11505;DHT22;5809;53.262;10.408;2022-08-18T08:30:07;20.20;99.90
11505;DHT22;5809;53.262;10.408;2022-08-18T08:32:38;20.10;99.90
11505;DHT22;5809;53.262;10.408;2022-08-18T08:35:10;20.20;99.90
11505;DHT22;5809;53.262;10.408;2022-08-18T08:37:41;20.30;99.90
11505;DHT22;5809;53.262;10.408;2022-08-18T08:40:15;20.40;99.90
11505;DHT22;5809;53.262;10.408;2022-08-18T08:42:49;20.50;99.90
11505;DHT22;5809;53.262;10.408;2022-08-18T08:45:24;20.60;99.90
11505;DHT22;5809;53.262;10.408;2022-08-18T08:47:58;20.50;99.90
11505;DHT22;5809;53.262;10.408;2022-08-18T08:50:28;20.50;99.90
11505;DHT22;5809;53.262;10.408;2022-08-18T08:53:00;20.30;99.90
11505;DHT22;5809;53.262;10.408;2022-08-18T08:55:32;20.40;99.90
11505;DHT22;5809;53.262;10.408;2022-08-18T08:58:15;20.30;99.90
11505;DHT22;5809;53.262;10.408;2022-08-18T09:00:45;20.30;99.90
11505;DHT22;5809;53.262;10.408;2022-08-18T09:03:23;20.50;99.90
11505;DHT22;5809;53.262;10.408;2022-08-18T09:06:02;20.70;99.90
11505;DHT22;5809;53.262;10.408;2022-08-18T09:08:41;20.90;99.90
11505;DHT22;5809;53.262;10.408;2022-08-18T09:11:27;22.70;99.90
11505;DHT22;5809;53.262;10.408;2022-08-18T09:14:19;21.30;99.90
11505;DHT22;5809;53.262;10.408;2022-08-18T09:17:00;21.40;99.90
11505;DHT22;5809;53.262;10.408;2022-08-18T09:19:50;21.50;99.90
11505;DHT22;5809;53.262;10.408;2022-08-18T09:22:32;21.70;99.90
11505;DHT22;5809;53.262;10.408;2022-08-18T09:25:08;21.90;99.90
11505;DHT22;5809;53.262;10.408;2022-08-18T09:27:39;21.90;99.90
11505;DHT22;5809;53.262;10.408;2022-08-18T09:30:39;21.80;99.90
11505;DHT22;5809;53.262;10.408;2022-08-18T09:33:19;21.80;99.90
11505;DHT22;5809;53.262;10.408;2022-08-18T09:36:03;21.80;99.90
11505;DHT22;5809;53.262;10.408;2022-08-18T09:38:34;21.80;99.90
11505;DHT22;5809;53.262;10.408;2022-08-18T09:41:22;21.90;99.90
11505;DHT22;5809;53.262;10.408;2022-08-18T09:44:02;22.10;99.90
11505;DHT22;5809;53.262;10.408;2022-08-18T09:46:55;22.20;99.90
11505;DHT22;5809;53.262;10.408;2022-08-18T09:49:43;22.40;99.90
11505;DHT22;5809;53.262;10.408;2022-08-18T09:55:51;22.60;99.90
11505;DHT22;5809;53.262;10.408;2022-08-18T10:01:34;22.90;99.90
11505;DHT22;5809;53.262;10.408;2022-08-18T10:04:31;22.90;99.90
11505;DHT22;5809;53.262;10.408;2022-08-18T10:07:15;23.20;99.90
11505;DHT22;5809;53.262;10.408;2022-08-18T10:09:49;23.30;99.90
11505;DHT22;5809;53.262;10.408;2022-08-18T10:15:28;24.00;99.90
11505;DHT22;5809;53.262;10.408;2022-08-18T10:20:55;23.90;99.90
11505;DHT22;5809;53.262;10.408;2022-08-18T10:23:48;24.10;99.90
11505;DHT22;5809;53.262;10.408;2022-08-18T10:29:52;24.90;99.90
11505;DHT22;5809;53.262;10.408;2022-08-18T10:32:44;25.00;99.90
11505;DHT22;5809;53.262;10.408;2022-08-18T10:38:25;25.30;99.90
11505;DHT22;5809;53.262;10.408;2022-08-18T10:40:59;25.70;99.90
11505;DHT22;5809;53.262;10.408;2022-08-18T10:43:34;26.30;99.90
11505;DHT22;5809;53.262;10.408;2022-08-18T10:46:01;26.50;99.90
11505;DHT22;5809;53.262;10.408;2022-08-18T10:48:32;27.10;99.90
11505;DHT22;5809;53.262;10.408;2022-08-18T10:51:05;27.60;99.90
11505;DHT22;5809;53.262;10.408;2022-08-18T10:53:40;28.00;99.90
11505;DHT22;5809;53.262;10.408;2022-08-18T10:56:27;27.40;99.90
11505;DHT22;5809;53.262;10.408;2022-08-18T10:59:06;27.90;99.90
11505;DHT22;5809;53.262;10.408;2022-08-18T11:01:56;28.40;99.90
11505;DHT22;5809;53.262;10.408;2022-08-18T11:04:29;29.30;99.90
11505;DHT22;5809;53.262;10.408;2022-08-18T11:07:05;30.40;99.90
11505;DHT22;5809;53.262;10.408;2022-08-18T11:09:36;30.20;99.90
11505;DHT22;5809;53.262;10.408;2022-08-18T11:12:04;29.70;99.90
11505;DHT22;5809;53.262;10.408;2022-08-18T11:14:51;29.70;99.90
11505;DHT22;5809;53.262;10.408;2022-08-18T11:17:33;30.70;99.90
11505;DHT22;5809;53.262;10.408;2022-08-18T11:20:05;32.00;99.90
11505;DHT22;5809;53.262;10.408;2022-08-18T11:22:35;31.50;99.90
11505;DHT22;5809;53.262;10.408;2022-08-18T11:25:19;32.80;99.90
11505;DHT22;5809;53.262;10.408;2022-08-18T11:27:48;33.40;99.90
11505;DHT22;5809;53.262;10.408;2022-08-18T11:30:16;32.60;99.90
11505;DHT22;5809;53.262;10.408;2022-08-18T11:32:43;31.30;99.90
11505;DHT22;5809;53.262;10.408;2022-08-18T11:35:14;30.40;99.90
11505;DHT22;5809;53.262;10.408;2022-08-18T11:37:45;29.60;99.90
11505;DHT22;5809;53.262;10.408;2022-08-18T11:40:29;30.20;99.90
11505;DHT22;5809;53.262;10.408;2022-08-18T11:43:01;31.50;99.90
11505;DHT22;5809;53.262;10.408;2022-08-18T11:45:33;31.80;99.90
11505;DHT22;5809;53.262;10.408;2022-08-18T11:48:17;31.90;99.90
11505;DHT22;5809;53.262;10.408;2022-08-18T11:50:48;32.50;99.90
11505;DHT22;5809;53.262;10.408;2022-08-18T11:53:22;32.30;99.90
11505;DHT22;5809;53.262;10.408;2022-08-18T11:56:10;31.70;99.90
11505;DHT22;5809;53.262;10.408;2022-08-18T11:58:38;31.50;99.90
11505;DHT22;5809;53.262;10.408;2022-08-18T12:01:07;30.90;99.90
11505;DHT22;5809;53.262;10.408;2022-08-18T12:03:40;30.40;99.90
11505;DHT22;5809;53.262;10.408;2022-08-18T12:06:26;30.30;99.90
11505;DHT22;5809;53.262;10.408;2022-08-18T12:08:58;30.00;99.90
11505;DHT22;5809;53.262;10.408;2022-08-18T12:11:30;30.70;99.90
11505;DHT22;5809;53.262;10.408;2022-08-18T12:14:04;31.70;99.90
11505;DHT22;5809;53.262;10.408;2022-08-18T12:16:38;32.10;99.90
11505;DHT22;5809;53.262;10.408;2022-08-18T12:19:06;32.00;99.90
11505;DHT22;5809;53.262;10.408;2022-08-18T12:21:36;32.40;99.90
11505;DHT22;5809;53.262;10.408;2022-08-18T12:24:05;32.20;99.90
11505;DHT22;5809;53.262;10.408;2022-08-18T12:26:37;31.80;99.90
11505;DHT22;5809;53.262;10.408;2022-08-18T12:29:04;31.80;99.90
11505;DHT22;5809;53.262;10.408;2022-08-18T12:31:31;32.00;99.90
11505;DHT22;5809;53.262;10.408;2022-08-18T12:33:58;32.70;99.90
11505;DHT22;5809;53.262;10.408;2022-08-18T12:36:26;33.60;99.90
11505;DHT22;5809;53.262;10.408;2022-08-18T12:38:54;33.90;99.90
11505;DHT22;5809;53.262;10.408;2022-08-18T12:41:22;33.10;99.90
11505;DHT22;5809;53.262;10.408;2022-08-18T12:43:50;32.90;99.90
11505;DHT22;5809;53.262;10.408;2022-08-18T12:46:18;32.60;99.90
11505;DHT22;5809;53.262;10.408;2022-08-18T12:48:45;32.80;99.90
11505;DHT22;5809;53.262;10.408;2022-08-18T12:51:12;33.70;99.90
11505;DHT22;5809;53.262;10.408;2022-08-18T12:53:40;34.80;99.90
11505;DHT22;5809;53.262;10.408;2022-08-18T12:56:16;35.70;99.90
11505;DHT22;5809;53.262;10.408;2022-08-18T12:58:44;34.60;99.90
11505;DHT22;5809;53.262;10.408;2022-08-18T13:01:13;34.30;99.90
11505;DHT22;5809;53.262;10.408;2022-08-18T13:03:40;33.80;99.90
11505;DHT22;5809;53.262;10.408;2022-08-18T13:06:07;33.00;99.90
11505;DHT22;5809;53.262;10.408;2022-08-18T13:08:34;32.50;99.90
11505;DHT22;5809;53.262;10.408;2022-08-18T13:11:01;33.00;99.90
11505;DHT22;5809;53.262;10.408;2022-08-18T13:13:30;34.10;99.90
11505;DHT22;5809;53.262;10.408;2022-08-18T13:15:57;34.60;99.90
11505;DHT22;5809;53.262;10.408;2022-08-18T13:18:25;34.70;99.90
11505;DHT22;5809;53.262;10.408;2022-08-18T13:20:52;34.30;99.90
11505;DHT22;5809;53.262;10.408;2022-08-18T13:23:19;34.10;99.90
11505;DHT22;5809;53.262;10.408;2022-08-18T13:25:46;34.10;99.90
11505;DHT22;5809;53.262;10.408;2022-08-18T13:28:24;33.80;99.90
11505;DHT22;5809;53.262;10.408;2022-08-18T13:30:51;33.80;99.90
11505;DHT22;5809;53.262;10.408;2022-08-18T13:33:19;34.00;99.90
11505;DHT22;5809;53.262;10.408;2022-08-18T13:35:48;32.60;99.90
11505;DHT22;5809;53.262;10.408;2022-08-18T13:38:16;32.60;99.90
11505;DHT22;5809;53.262;10.408;2022-08-18T13:40:47;33.60;99.90
11505;DHT22;5809;53.262;10.408;2022-08-18T13:43:15;33.80;99.90
11505;DHT22;5809;53.262;10.408;2022-08-18T13:45:42;33.90;99.90
11505;DHT22;5809;53.262;10.408;2022-08-18T13:48:11;34.10;99.90
11505;DHT22;5809;53.262;10.408;2022-08-18T13:50:38;32.90;99.90
11505;DHT22;5809;53.262;10.408;2022-08-18T13:53:11;32.80;99.90
11505;DHT22;5809;53.262;10.408;2022-08-18T13:55:39;32.80;99.90
11505;DHT22;5809;53.262;10.408;2022-08-18T13:58:06;33.20;99.90
11505;DHT22;5809;53.262;10.408;2022-08-18T14:00:34;33.30;99.90
11505;DHT22;5809;53.262;10.408;2022-08-18T14:03:01;32.20;99.90
11505;DHT22;5809;53.262;10.408;2022-08-18T14:05:29;32.10;99.90
11505;DHT22;5809;53.262;10.408;2022-08-18T14:07:57;32.50;99.90
11505;DHT22;5809;53.262;10.408;2022-08-18T14:10:26;32.50;99.90
11505;DHT22;5809;53.262;10.408;2022-08-18T14:12:55;32.90;99.90
11505;DHT22;5809;53.262;10.408;2022-08-18T14:15:22;33.70;99.90
11505;DHT22;5809;53.262;10.408;2022-08-18T14:17:49;34.10;99.90
11505;DHT22;5809;53.262;10.408;2022-08-18T14:20:17;32.70;99.90
11505;DHT22;5809;53.262;10.408;2022-08-18T14:23:02;33.30;99.90
11505;DHT22;5809;53.262;10.408;2022-08-18T14:25:48;33.40;99.90
11505;DHT22;5809;53.262;10.408;2022-08-18T14:28:33;33.60;99.90
11505;DHT22;5809;53.262;10.408;2022-08-18T14:31:02;34.70;99.90
11505;DHT22;5809;53.262;10.408;2022-08-18T14:33:30;34.20;99.90
11505;DHT22;5809;53.262;10.408;2022-08-18T14:35:58;34.60;99.90
11505;DHT22;5809;53.262;10.408;2022-08-18T14:38:25;35.00;99.90
11505;DHT22;5809;53.262;10.408;2022-08-18T14:40:53;35.50;99.90
11505;DHT22;5809;53.262;10.408;2022-08-18T14:43:20;36.10;99.90
11505;DHT22;5809;53.262;10.408;2022-08-18T14:45:47;35.70;99.90
11505;DHT22;5809;53.262;10.408;2022-08-18T14:48:16;33.20;99.90
11505;DHT22;5809;53.262;10.408;2022-08-18T14:50:47;31.80;99.90
11505;DHT22;5809;53.262;10.408;2022-08-18T14:53:16;30.50;99.90
11505;DHT22;5809;53.262;10.408;2022-08-18T14:55:44;29.70;99.90
11505;DHT22;5809;53.262;10.408;2022-08-18T14:58:13;29.40;99.90
11505;DHT22;5809;53.262;10.408;2022-08-18T15:00:40;30.20;99.90
11505;DHT22;5809;53.262;10.408;2022-08-18T15:03:07;31.70;99.90
11505;DHT22;5809;53.262;10.408;2022-08-18T15:05:34;32.90;99.90
11505;DHT22;5809;53.262;10.408;2022-08-18T15:08:02;33.70;99.90
11505;DHT22;5809;53.262;10.408;2022-08-18T15:10:30;33.90;99.90
11505;DHT22;5809;53.262;10.408;2022-08-18T15:12:58;34.90;99.90
11505;DHT22;5809;53.262;10.408;2022-08-18T15:15:27;35.60;99.90
11505;DHT22;5809;53.262;10.408;2022-08-18T15:17:55;34.50;99.90
11505;DHT22;5809;53.262;10.408;2022-08-18T15:20:25;32.50;99.90
11505;DHT22;5809;53.262;10.408;2022-08-18T15:22:52;31.40;99.90
11505;DHT22;5809;53.262;10.408;2022-08-18T15:25:36;31.40;99.90
11505;DHT22;5809;53.262;10.408;2022-08-18T15:28:12;30.10;99.90
11505;DHT22;5809;53.262;10.408;2022-08-18T15:30:44;29.40;99.90
11505;DHT22;5809;53.262;10.408;2022-08-18T15:35:40;28.50;99.90
11505;DHT22;5809;53.262;10.408;2022-08-18T15:38:08;28.50;99.90
11505;DHT22;5809;53.262;10.408;2022-08-18T15:40:37;28.40;99.90
11505;DHT22;5809;53.262;10.408;2022-08-18T15:43:12;28.40;99.90
11505;DHT22;5809;53.262;10.408;2022-08-18T15:45:42;28.50;99.90
11505;DHT22;5809;53.262;10.408;2022-08-18T15:48:13;28.50;99.90
11505;DHT22;5809;53.262;10.408;2022-08-18T15:50:40;28.50;99.90
11505;DHT22;5809;53.262;10.408;2022-08-18T15:53:10;28.50;99.90
11505;DHT22;5809;53.262;10.408;2022-08-18T15:55:39;28.40;99.90
11505;DHT22;5809;53.262;10.408;2022-08-18T15:58:06;28.40;99.90
11505;DHT22;5809;53.262;10.408;2022-08-18T16:00:34;28.30;99.90
11505;DHT22;5809;53.262;10.408;2022-08-18T16:03:05;28.20;99.90
11505;DHT22;5809;53.262;10.408;2022-08-18T16:05:35;28.00;99.90
11505;DHT22;5809;53.262;10.408;2022-08-18T16:08:03;27.70;99.90
11505;DHT22;5809;53.262;10.408;2022-08-18T16:10:32;27.60;99.90
11505;DHT22;5809;53.262;10.408;2022-08-18T16:13:00;27.50;99.90
11505;DHT22;5809;53.262;10.408;2022-08-18T16:20:25;27.30;99.90
11505;DHT22;5809;53.262;10.408;2022-08-18T16:22:54;27.20;99.90
11505;DHT22;5809;53.262;10.408;2022-08-18T16:25:23;27.30;99.90
11505;DHT22;5809;53.262;10.408;2022-08-18T16:30:20;27.10;99.90
11505;DHT22;5809;53.262;10.408;2022-08-18T16:32:48;27.10;99.90
11505;DHT22;5809;53.262;10.408;2022-08-18T16:35:16;27.00;99.90
11505;DHT22;5809;53.262;10.408;2022-08-18T16:37:46;26.80;99.90
11505;DHT22;5809;53.262;10.408;2022-08-18T16:40:15;26.70;99.90
11505;DHT22;5809;53.262;10.408;2022-08-18T16:42:43;26.60;99.90
11505;DHT22;5809;53.262;10.408;2022-08-18T16:45:10;26.60;99.90
11505;DHT22;5809;53.262;10.408;2022-08-18T16:50:07;27.20;99.90
11505;DHT22;5809;53.262;10.408;2022-08-18T16:52:35;26.40;99.90
11505;DHT22;5809;53.262;10.408;2022-08-18T16:55:05;26.30;99.90
11505;DHT22;5809;53.262;10.408;2022-08-18T17:00:18;26.30;99.90
11505;DHT22;5809;53.262;10.408;2022-08-18T17:03:09;26.10;99.90
11505;DHT22;5809;53.262;10.408;2022-08-18T17:05:58;26.10;99.90
11505;DHT22;5809;53.262;10.408;2022-08-18T17:08:26;25.90;99.90
11505;DHT22;5809;53.262;10.408;2022-08-18T17:10:54;25.70;99.90
11505;DHT22;5809;53.262;10.408;2022-08-18T17:13:22;25.50;99.90
11505;DHT22;5809;53.262;10.408;2022-08-18T17:28:08;25.00;99.90
11505;DHT22;5809;53.262;10.408;2022-08-18T17:30:42;24.90;99.90
11505;DHT22;5809;53.262;10.408;2022-08-18T17:33:14;24.90;99.90
11505;DHT22;5809;53.262;10.408;2022-08-18T17:35:44;24.80;99.90
11505;DHT22;5809;53.262;10.408;2022-08-18T17:38:17;24.70;99.90
11505;DHT22;5809;53.262;10.408;2022-08-18T17:40:48;24.70;99.90
11505;DHT22;5809;53.262;10.408;2022-08-18T17:43:18;24.60;99.90